createdAt,value
2024-03-06T00:00:22.546Z,32.88
2024-03-06T00:02:52.282Z,31.27
2024-03-06T00:05:20.463Z,33.30
2024-03-06T00:07:48.559Z,32.30
2024-03-06T00:10:17.104Z,34.28
2024-03-06T00:12:45.203Z,29.77
2024-03-06T00:15:13.622Z,32.42
2024-03-06T00:17:42.014Z,30.73
2024-03-06T00:20:12.848Z,31.77
2024-03-06T00:22:41.036Z,31.02
2024-03-06T00:25:10.123Z,27.60
2024-03-06T00:27:38.416Z,28.70
2024-03-06T00:30:08.020Z,27.08
2024-03-06T00:32:36.107Z,26.10
2024-03-06T00:35:05.200Z,23.35
2024-03-06T00:37:34.659Z,25.63
2024-03-06T00:40:02.702Z,27.30
2024-03-06T00:42:31.147Z,25.33
2024-03-06T00:44:59.337Z,26.70
2024-03-06T00:47:28.002Z,26.08
2024-03-06T00:49:56.393Z,25.48
2024-03-06T00:52:24.454Z,25.95
2024-03-06T00:54:53.971Z,24.67
2024-03-06T00:57:22.160Z,23.77
2024-03-06T00:59:50.267Z,28.02
2024-03-06T01:02:18.647Z,25.63
2024-03-06T01:04:46.932Z,20.45
2024-03-06T01:07:15.110Z,25.15
2024-03-06T01:09:43.626Z,24.88
2024-03-06T01:12:13.126Z,24.70
2024-03-06T01:14:41.339Z,27.02
2024-03-06T01:17:09.492Z,23.75
2024-03-06T01:19:37.695Z,25.30
2024-03-06T01:22:05.761Z,26.45
2024-03-06T01:24:33.885Z,27.73
2024-03-06T01:27:03.942Z,30.50
2024-03-06T01:29:33.959Z,25.67
2024-03-06T01:32:02.196Z,29.02
2024-03-06T01:34:30.762Z,29.67
2024-03-06T01:36:59.012Z,27.35
2024-03-06T01:39:27.277Z,27.10
2024-03-06T01:41:55.755Z,31.67
2024-03-06T01:44:23.876Z,37.55
2024-03-06T01:46:53.396Z,30.63
2024-03-06T01:49:28.552Z,34.65
2024-03-06T01:52:01.982Z,35.33
2024-03-06T01:54:30.350Z,30.02
2024-03-06T01:57:01.195Z,34.65
2024-03-06T01:59:36.099Z,35.00
2024-03-06T02:02:26.426Z,32.63
2024-03-06T02:04:56.139Z,30.10
2024-03-06T02:07:30.501Z,31.67
2024-03-06T02:09:59.076Z,36.08
2024-03-06T02:12:28.386Z,31.88
2024-03-06T02:14:56.412Z,35.97
2024-03-06T02:17:28.265Z,34.65
2024-03-06T02:19:59.402Z,28.48
2024-03-06T02:22:28.946Z,34.30
2024-03-06T02:24:57.190Z,36.72
2024-03-06T02:27:25.352Z,37.55
2024-03-06T02:29:53.536Z,37.10
2024-03-06T02:32:21.678Z,35.45
2024-03-06T02:34:50.468Z,32.63
2024-03-06T02:37:18.980Z,37.33
2024-03-06T02:39:48.783Z,35.40
2024-03-06T02:42:18.130Z,31.00
2024-03-06T02:44:46.518Z,34.70
2024-03-06T02:47:14.803Z,36.28
2024-03-06T02:49:42.928Z,37.28
2024-03-06T02:52:11.082Z,35.60
2024-03-06T02:54:39.121Z,35.85
2024-03-06T02:57:08.602Z,33.60
2024-03-06T02:59:36.683Z,32.72
2024-03-06T03:02:04.926Z,34.95
2024-03-06T03:04:33.495Z,32.00
2024-03-06T03:07:01.664Z,29.35
2024-03-06T03:09:30.900Z,32.90
2024-03-06T03:12:00.336Z,34.08
2024-03-06T03:14:29.689Z,28.55
2024-03-06T03:16:57.822Z,30.13
2024-03-06T03:19:25.894Z,30.23
2024-03-06T03:21:54.221Z,31.00
2024-03-06T03:24:23.052Z,31.25
2024-03-06T03:26:53.397Z,28.42
2024-03-06T03:29:22.052Z,32.33
2024-03-06T03:31:51.593Z,32.72
2024-03-06T03:34:22.126Z,28.08
2024-03-06T03:36:50.270Z,32.42
2024-03-06T03:39:18.690Z,27.60
2024-03-06T03:41:47.774Z,30.90
2024-03-06T03:44:16.251Z,29.48
2024-03-06T03:46:45.225Z,31.27
2024-03-06T03:49:14.949Z,30.60
2024-03-06T03:51:43.330Z,30.92
2024-03-06T03:54:11.488Z,29.90
2024-03-06T03:56:40.004Z,30.88
2024-03-06T03:59:08.604Z,25.27
2024-03-06T04:01:36.863Z,28.35
2024-03-06T04:04:05.393Z,30.38
2024-03-06T04:06:34.941Z,32.65
2024-03-06T04:09:03.537Z,27.67
2024-03-06T04:11:31.950Z,27.73
2024-03-06T04:14:00.068Z,30.70
2024-03-06T04:16:31.058Z,30.83
2024-03-06T04:18:59.860Z,29.67
2024-03-06T04:21:28.061Z,27.70
2024-03-06T04:23:57.476Z,28.08
2024-03-06T04:26:25.672Z,30.90
2024-03-06T04:28:55.129Z,31.25
2024-03-06T04:31:23.322Z,28.92
2024-03-06T04:33:51.402Z,28.52
2024-03-06T04:36:19.630Z,24.08
2024-03-06T04:38:47.789Z,26.55
2024-03-06T04:41:17.316Z,23.58
2024-03-06T04:43:45.434Z,22.20
2024-03-06T04:46:15.896Z,26.25
2024-03-06T04:48:44.014Z,21.25
2024-03-06T04:51:12.178Z,22.55
2024-03-06T04:53:40.367Z,25.30
2024-03-06T04:56:11.898Z,24.42
2024-03-06T04:58:42.536Z,24.10
2024-03-06T05:01:10.732Z,24.25
2024-03-06T05:59:12.954Z,20.45
2024-03-06T06:01:41.437Z,22.05
2024-03-06T06:04:11.380Z,23.92
2024-03-06T06:06:40.004Z,23.17
2024-03-06T06:09:13.917Z,21.35
2024-03-06T06:11:42.260Z,24.88
2024-03-06T06:14:10.375Z,21.20
2024-03-06T06:16:39.860Z,22.60
2024-03-06T06:19:08.373Z,24.95
2024-03-06T06:21:38.349Z,24.77
2024-03-06T06:24:07.863Z,18.48
2024-03-06T06:26:36.233Z,33.80
2024-03-06T06:29:04.780Z,39.97
2024-03-06T06:31:33.167Z,31.02
2024-03-06T06:34:01.450Z,28.65
2024-03-06T06:36:30.883Z,27.45
2024-03-06T06:39:03.112Z,30.40
2024-03-06T06:41:33.655Z,32.75
2024-03-06T06:44:04.067Z,33.97
2024-03-06T06:46:33.541Z,30.65
2024-03-06T06:49:01.892Z,37.15
2024-03-06T06:51:30.086Z,35.25
2024-03-06T06:54:00.614Z,36.78
2024-03-06T06:56:30.547Z,41.75
2024-03-06T06:58:58.975Z,38.88
2024-03-06T07:01:28.811Z,40.22
2024-03-06T07:03:57.252Z,40.45
2024-03-06T07:06:25.677Z,34.83
2024-03-06T07:08:53.889Z,44.13
2024-03-06T07:11:23.028Z,43.45
2024-03-06T07:13:52.800Z,50.58
2024-03-06T07:16:23.938Z,41.42
2024-03-06T07:18:52.112Z,43.08
2024-03-06T07:21:20.264Z,44.55
2024-03-06T07:23:48.604Z,47.38
2024-03-06T07:26:17.178Z,47.42
2024-03-06T07:28:45.328Z,42.75
2024-03-06T07:31:14.913Z,39.08
2024-03-06T07:33:43.176Z,46.38
2024-03-06T07:36:11.729Z,42.25
2024-03-06T07:38:39.930Z,43.30
2024-03-06T07:41:08.781Z,40.78
2024-03-06T07:43:37.014Z,48.40
2024-03-06T07:46:10.967Z,36.75
2024-03-06T07:48:40.645Z,36.80
2024-03-06T07:51:09.958Z,35.40
2024-03-06T07:53:38.528Z,34.95
2024-03-06T07:56:07.322Z,42.67
2024-03-06T07:58:35.695Z,34.78
2024-03-06T08:01:08.642Z,33.38
2024-03-06T08:03:36.954Z,34.80
2024-03-06T08:06:07.637Z,30.98
2024-03-06T08:08:36.620Z,37.55
2024-03-06T08:11:05.384Z,38.72
2024-03-06T08:13:33.872Z,38.30
2024-03-06T08:16:02.280Z,39.53
2024-03-06T08:18:30.503Z,34.85
2024-03-06T08:20:59.136Z,36.92
2024-03-06T08:23:31.924Z,38.78
2024-03-06T08:26:02.714Z,40.20
2024-03-06T08:28:31.013Z,32.72
2024-03-06T08:30:59.173Z,35.78
2024-03-06T08:33:27.657Z,33.85
2024-03-06T08:35:56.157Z,32.42
2024-03-06T08:38:24.943Z,31.85
2024-03-06T08:40:55.323Z,35.85
2024-03-06T08:43:23.719Z,27.83
2024-03-06T08:45:52.028Z,32.05
2024-03-06T08:48:20.623Z,31.60
2024-03-06T08:50:49.003Z,28.33
2024-03-06T08:53:17.353Z,34.80
2024-03-06T08:55:45.691Z,33.10
2024-03-06T08:58:16.042Z,29.33
2024-03-06T09:00:44.498Z,32.35
2024-03-06T09:03:12.911Z,30.40
2024-03-06T09:05:41.257Z,29.65
2024-03-06T09:08:10.657Z,30.98
2024-03-06T09:10:39.430Z,28.05
2024-03-06T09:13:07.501Z,31.50
2024-03-06T09:15:36.878Z,32.95
2024-03-06T09:18:05.833Z,32.95
2024-03-06T09:20:34.189Z,28.52
2024-03-06T09:23:02.556Z,26.20
2024-03-06T09:25:31.209Z,19.88
2024-03-06T09:28:01.171Z,20.60
2024-03-06T09:30:30.489Z,21.98
2024-03-06T09:33:00.202Z,18.02
2024-03-06T09:35:28.438Z,20.98
2024-03-06T09:37:59.123Z,17.20
2024-03-06T09:40:27.486Z,17.65
2024-03-06T09:42:55.977Z,19.95
2024-03-06T09:45:24.839Z,18.52
2024-03-06T09:47:54.188Z,25.40
2024-03-06T09:50:28.441Z,21.30
2024-03-06T09:52:58.289Z,26.33
2024-03-06T09:55:28.805Z,25.92
2024-03-06T09:57:57.731Z,18.95
2024-03-06T10:00:27.489Z,21.00
2024-03-06T10:03:00.502Z,18.25
2024-03-06T10:05:31.863Z,17.17
2024-03-06T10:08:01.497Z,20.08
2024-03-06T10:10:29.929Z,22.52
2024-03-06T10:13:03.678Z,23.02
2024-03-06T10:15:32.332Z,18.55
2024-03-06T10:18:13.352Z,18.48
2024-03-06T10:20:46.290Z,16.02
2024-03-06T10:23:19.633Z,16.63
2024-03-06T10:25:54.581Z,12.23
2024-03-06T10:28:26.899Z,12.10
2024-03-06T10:31:06.054Z,15.32
2024-03-06T10:33:34.851Z,15.57
2024-03-06T10:36:05.460Z,13.77
2024-03-06T10:38:39.060Z,14.32
2024-03-06T10:41:15.648Z,16.42
2024-03-06T10:43:46.905Z,14.57
2024-03-06T10:46:16.651Z,14.20
2024-03-06T10:48:46.067Z,14.73
2024-03-06T10:51:17.117Z,9.43
2024-03-06T10:53:47.463Z,13.63
2024-03-06T10:56:16.250Z,10.63
2024-03-06T10:58:45.144Z,12.32
2024-03-06T11:01:13.949Z,14.80
2024-03-06T11:03:43.036Z,10.65
2024-03-06T11:06:11.373Z,10.20
2024-03-06T11:08:41.345Z,10.02
2024-03-06T11:11:23.352Z,12.95
2024-03-06T11:13:51.734Z,11.07
2024-03-06T11:16:19.825Z,10.88
2024-03-06T11:18:49.373Z,16.90
2024-03-06T11:21:34.364Z,13.90
2024-03-06T11:24:23.473Z,9.95
2024-03-06T11:26:57.722Z,12.15
2024-03-06T11:29:28.224Z,11.27
2024-03-06T11:32:11.705Z,10.30
2024-03-06T11:34:40.770Z,11.90
2024-03-06T11:37:12.980Z,10.50
2024-03-06T11:39:45.943Z,10.45
2024-03-06T11:42:16.350Z,9.05
2024-03-06T11:44:57.857Z,10.00
2024-03-06T11:47:26.993Z,8.18
2024-03-06T11:49:56.761Z,8.13
2024-03-06T11:52:25.000Z,8.77
2024-03-06T11:54:55.672Z,8.35
2024-03-06T11:57:28.206Z,9.57
2024-03-06T11:59:56.879Z,12.02
2024-03-06T12:02:25.391Z,11.40
2024-03-06T12:04:55.025Z,9.45
2024-03-06T12:07:23.574Z,12.15
2024-03-06T12:09:52.529Z,11.48
2024-03-06T12:12:22.339Z,10.93
2024-03-06T12:14:59.382Z,9.38
2024-03-06T12:17:27.908Z,8.98
2024-03-06T12:19:58.228Z,9.43
2024-03-06T12:22:28.184Z,10.15
2024-03-06T12:25:01.212Z,11.13
2024-03-06T12:27:31.001Z,8.48
2024-03-06T12:29:59.301Z,12.65
2024-03-06T12:32:31.311Z,8.48
2024-03-06T12:35:01.837Z,11.50
2024-03-06T12:37:35.165Z,8.85
2024-03-06T12:40:05.841Z,9.50
2024-03-06T12:42:35.594Z,9.00
2024-03-06T12:45:04.773Z,9.90
2024-03-06T12:47:33.359Z,12.98
2024-03-06T12:50:01.791Z,9.57
2024-03-06T12:52:29.959Z,9.52
2024-03-06T12:54:58.203Z,8.77
2024-03-06T12:57:26.882Z,11.93
2024-03-06T12:59:56.558Z,10.93
2024-03-06T13:02:24.999Z,10.15
2024-03-06T13:04:53.550Z,14.63
2024-03-06T13:07:22.110Z,12.45
2024-03-06T13:09:50.422Z,8.75
2024-03-06T13:12:18.641Z,11.57
2024-03-06T13:14:46.952Z,10.82
2024-03-06T13:17:17.385Z,12.13
2024-03-06T13:19:45.613Z,6.53
2024-03-06T13:22:14.056Z,8.20
2024-03-06T13:24:44.180Z,6.95
2024-03-06T13:27:13.921Z,8.73
2024-03-06T13:29:42.632Z,7.55
2024-03-06T13:32:11.813Z,9.23
2024-03-06T13:34:41.566Z,10.23
2024-03-06T13:37:11.742Z,10.98
2024-03-06T13:39:41.260Z,4.30
2024-03-06T13:42:10.630Z,7.07
2024-03-06T13:44:39.024Z,7.45
2024-03-06T13:47:09.246Z,7.05
2024-03-06T13:49:39.639Z,8.13
2024-03-06T13:52:11.489Z,8.38
2024-03-06T13:54:41.469Z,8.60
2024-03-06T13:57:10.312Z,8.18
2024-03-06T13:59:39.148Z,7.82
2024-03-06T14:02:08.764Z,7.95
2024-03-06T14:04:37.444Z,9.23
2024-03-06T14:07:06.662Z,10.80
2024-03-06T14:09:36.330Z,7.90
2024-03-06T14:12:04.822Z,7.00
2024-03-06T14:14:33.020Z,9.55
2024-03-06T14:17:01.489Z,6.57
2024-03-06T14:19:30.083Z,7.40
2024-03-06T14:22:02.056Z,5.95
2024-03-06T14:24:32.653Z,11.68
2024-03-06T14:27:02.230Z,10.02
2024-03-06T14:29:30.698Z,9.43
2024-03-06T14:31:59.476Z,6.03
2024-03-06T14:34:27.871Z,8.60
2024-03-06T14:36:56.373Z,8.55
2024-03-06T14:39:26.777Z,8.18
2024-03-06T14:41:55.358Z,8.38
2024-03-06T14:44:25.045Z,8.52
2024-03-06T14:46:53.670Z,7.25
2024-03-06T14:49:21.939Z,7.45
2024-03-06T14:51:50.155Z,7.00
2024-03-06T14:54:18.462Z,9.60
2024-03-06T14:56:46.901Z,7.88
2024-03-06T14:59:15.350Z,10.10
2024-03-06T15:01:45.600Z,12.40
2024-03-06T15:04:14.032Z,8.70
2024-03-06T15:06:42.662Z,10.40
2024-03-06T15:09:13.050Z,15.63
2024-03-06T15:11:41.843Z,12.23
2024-03-06T15:14:10.359Z,8.63
2024-03-06T15:16:39.869Z,5.57
2024-03-06T15:19:09.671Z,7.00
2024-03-06T15:21:37.908Z,9.50
2024-03-06T15:24:06.978Z,10.55
2024-03-06T15:26:36.924Z,13.18
2024-03-06T15:29:07.893Z,8.60
2024-03-06T15:31:36.162Z,9.55
2024-03-06T15:34:04.244Z,8.35
2024-03-06T15:36:33.776Z,8.63
2024-03-06T15:39:02.131Z,9.02
2024-03-06T15:41:30.377Z,11.95
2024-03-06T15:43:59.180Z,10.95
2024-03-06T15:46:27.868Z,10.90
2024-03-06T15:48:56.400Z,11.88
2024-03-06T15:51:24.665Z,10.38
2024-03-06T15:53:54.926Z,10.57
2024-03-06T15:56:23.103Z,9.85
2024-03-06T15:58:51.300Z,11.05
2024-03-06T16:01:19.656Z,11.85
2024-03-06T16:03:47.852Z,10.80
2024-03-06T16:06:19.322Z,11.32
2024-03-06T16:08:48.975Z,13.85
2024-03-06T16:11:18.765Z,12.05
2024-03-06T16:13:47.138Z,10.68
2024-03-06T16:16:17.654Z,12.73
2024-03-06T16:18:46.284Z,12.70
2024-03-06T16:21:14.338Z,13.65
2024-03-06T16:23:42.835Z,15.95
2024-03-06T16:26:11.173Z,13.65
2024-03-06T16:28:41.070Z,15.50
2024-03-06T16:31:09.648Z,14.48
2024-03-06T16:33:38.220Z,14.70
2024-03-06T16:36:09.789Z,16.85
2024-03-06T16:38:38.481Z,14.02
2024-03-06T16:41:10.325Z,13.93
2024-03-06T16:43:38.549Z,17.17
2024-03-06T16:46:08.226Z,13.50
2024-03-06T16:48:36.587Z,17.63
2024-03-06T16:51:05.359Z,20.95
2024-03-06T16:53:33.790Z,17.08
2024-03-06T16:56:02.162Z,14.95
2024-03-06T16:58:30.577Z,18.05
2024-03-06T17:00:58.874Z,15.82
2024-03-06T17:03:28.657Z,14.30
2024-03-06T17:05:56.941Z,14.57
2024-03-06T17:08:26.259Z,12.90
2024-03-06T17:10:54.567Z,13.23
2024-03-06T17:13:23.484Z,12.68
2024-03-06T17:15:52.366Z,13.93
2024-03-06T17:18:24.186Z,13.90
2024-03-06T17:20:54.516Z,13.13
2024-03-06T17:23:23.749Z,15.45
2024-03-06T17:25:53.498Z,14.88
2024-03-06T17:28:21.884Z,16.70
2024-03-06T17:30:50.367Z,24.95
2024-03-06T17:33:19.372Z,25.08
2024-03-06T17:35:48.459Z,24.30
2024-03-06T17:38:18.623Z,20.38
2024-03-06T17:40:47.498Z,23.70
2024-03-06T17:43:16.253Z,21.60
2024-03-06T17:45:44.490Z,21.65
2024-03-06T17:48:13.494Z,21.10
2024-03-06T17:50:44.288Z,24.50
2024-03-06T17:53:13.574Z,25.10
2024-03-06T17:55:43.572Z,28.45
2024-03-06T17:58:11.794Z,25.92
2024-03-06T18:00:43.054Z,28.08
2024-03-06T18:03:16.711Z,24.95
2024-03-06T18:05:45.421Z,20.10
2024-03-06T18:08:13.800Z,18.73
2024-03-06T18:10:43.459Z,18.02
2024-03-06T18:13:11.731Z,18.45
2024-03-06T18:15:43.020Z,16.77
2024-03-06T18:18:11.464Z,14.63
2024-03-06T18:20:40.000Z,18.98
2024-03-06T18:23:08.347Z,19.08
2024-03-06T18:25:36.407Z,18.30
2024-03-06T18:28:06.389Z,17.70
2024-03-06T18:30:35.077Z,21.52
2024-03-06T18:33:03.712Z,18.77
2024-03-06T18:35:31.988Z,22.08
2024-03-06T18:38:02.711Z,15.35
2024-03-06T18:40:31.364Z,15.98
2024-03-06T18:43:00.249Z,16.45
2024-03-06T18:45:31.277Z,18.50
2024-03-06T18:48:01.711Z,17.20
2024-03-06T18:50:33.621Z,17.08
2024-03-06T18:53:06.585Z,15.52
2024-03-06T18:55:35.536Z,16.35
2024-03-06T18:58:04.763Z,14.80
2024-03-06T19:00:35.151Z,14.55
2024-03-06T19:03:03.496Z,21.42
2024-03-06T19:05:31.897Z,19.52
2024-03-06T19:08:00.633Z,18.45
2024-03-06T19:10:28.818Z,16.42
2024-03-06T19:12:57.274Z,19.85
2024-03-06T19:15:25.744Z,19.58
2024-03-06T19:17:55.877Z,17.40
2024-03-06T19:20:24.543Z,14.18
2024-03-06T19:22:52.610Z,15.57
2024-03-06T19:25:21.378Z,17.33
2024-03-06T19:27:49.621Z,18.35
2024-03-06T19:30:17.814Z,18.85
2024-03-06T19:32:54.702Z,19.13
2024-03-06T19:35:26.884Z,15.45
2024-03-06T19:37:55.440Z,17.38
2024-03-06T19:40:23.864Z,19.30
2024-03-06T19:42:52.181Z,15.73
2024-03-06T19:45:21.160Z,16.25
2024-03-06T19:47:49.621Z,18.35
2024-03-06T19:50:18.387Z,15.13
2024-03-06T19:52:50.925Z,16.30
2024-03-06T19:55:21.181Z,17.80
2024-03-06T19:57:49.568Z,17.65
2024-03-06T20:00:20.845Z,16.13
2024-03-06T20:02:49.219Z,15.00
2024-03-06T20:05:18.241Z,15.63
2024-03-06T20:07:48.005Z,12.38
2024-03-06T20:10:16.612Z,18.02
2024-03-06T20:12:44.866Z,16.45
2024-03-06T20:15:13.602Z,13.38
2024-03-06T20:17:42.284Z,13.45
2024-03-06T20:20:13.189Z,14.18
2024-03-06T20:22:41.842Z,14.20
2024-03-06T20:25:12.850Z,13.40
2024-03-06T20:27:42.075Z,15.68
2024-03-06T20:30:11.857Z,14.18
2024-03-06T20:32:40.277Z,12.95
2024-03-06T20:35:10.032Z,15.88
2024-03-06T20:37:38.477Z,16.05
2024-03-06T20:40:07.885Z,14.60
2024-03-06T20:42:37.363Z,13.48
2024-03-06T20:45:11.747Z,15.32
2024-03-06T20:47:41.928Z,14.90
2024-03-06T20:50:11.865Z,13.60
2024-03-06T20:52:42.075Z,16.67
2024-03-06T20:55:11.113Z,17.48
2024-03-06T20:57:40.550Z,16.92
2024-03-06T21:00:13.964Z,16.13
2024-03-06T21:02:42.545Z,16.95
2024-03-06T21:05:11.516Z,16.98
2024-03-06T21:07:42.222Z,15.82
2024-03-06T21:10:11.530Z,16.27
2024-03-06T21:12:40.996Z,17.30
2024-03-06T21:15:10.660Z,18.20
2024-03-06T21:17:38.812Z,20.48
2024-03-06T21:20:12.665Z,18.92
2024-03-06T21:22:41.779Z,18.42
2024-03-06T21:25:11.714Z,20.25
2024-03-06T21:27:42.030Z,20.10
2024-03-06T21:30:12.637Z,21.92
2024-03-06T21:32:41.457Z,19.63
2024-03-06T21:35:11.276Z,17.80
2024-03-06T21:37:39.723Z,19.77
2024-03-06T21:40:10.650Z,22.15
2024-03-06T21:42:38.961Z,19.70
2024-03-06T21:45:10.833Z,19.33
2024-03-06T21:47:39.471Z,21.55
2024-03-06T21:50:08.498Z,20.27
2024-03-06T21:52:36.960Z,23.85
2024-03-06T21:55:05.318Z,25.15
2024-03-06T21:57:33.510Z,19.38
2024-03-06T22:00:01.626Z,20.55
2024-03-06T22:02:31.463Z,22.00
2024-03-06T22:04:59.810Z,25.92
2024-03-06T22:07:27.873Z,26.80
2024-03-06T22:09:56.270Z,28.92
2024-03-06T22:12:25.999Z,27.70
2024-03-06T22:14:55.727Z,26.50
2024-03-06T22:17:24.438Z,28.10
2024-03-06T22:19:54.161Z,29.73
2024-03-06T22:22:24.366Z,28.13
2024-03-06T22:24:53.514Z,29.73
2024-03-06T22:27:21.683Z,27.35
2024-03-06T22:29:49.809Z,32.17
2024-03-06T22:32:18.057Z,31.23
2024-03-06T22:34:46.412Z,28.95
2024-03-06T22:37:16.058Z,30.42
2024-03-06T22:39:44.310Z,31.75
2024-03-06T22:42:12.787Z,33.17
2024-03-06T22:44:41.326Z,33.38
2024-03-06T22:47:09.738Z,29.85
2024-03-06T22:49:38.022Z,31.90
2024-03-06T22:52:06.919Z,32.70
2024-03-06T22:54:38.849Z,32.50
2024-03-06T22:57:07.476Z,34.50
2024-03-06T22:59:35.834Z,28.50
2024-03-06T23:02:04.354Z,31.45
2024-03-06T23:04:33.516Z,29.27
2024-03-06T23:07:01.767Z,28.40
2024-03-06T23:09:29.803Z,32.35
2024-03-06T23:11:59.284Z,36.05
2024-03-06T23:14:28.177Z,35.03
2024-03-06T23:16:56.515Z,30.35
2024-03-06T23:19:24.901Z,32.45
2024-03-06T23:21:52.957Z,31.42
2024-03-06T23:24:21.015Z,28.70
2024-03-06T23:26:49.182Z,30.02
2024-03-06T23:29:18.922Z,30.98
2024-03-06T23:31:47.120Z,31.90
2024-03-06T23:34:15.149Z,33.03
2024-03-06T23:36:43.303Z,29.73
2024-03-06T23:39:11.433Z,29.40
2024-03-06T23:41:39.715Z,34.67
2024-03-06T23:44:07.836Z,28.35
2024-03-06T23:46:37.385Z,33.15
2024-03-06T23:49:05.796Z,27.77
2024-03-06T23:51:34.637Z,31.90
2024-03-06T23:54:03.350Z,30.48
2024-03-06T23:56:32.774Z,30.85
2024-03-06T23:59:01.016Z,28.17
